sensor_id;sensor_type;location;lat;lon;timestamp;pressure;altitude;pressure_sealevel;temperature
14851;BMP180;7517;48.400;11.770;2022-10-30T00:01:21;96968.00;;;16.50
14851;BMP180;7517;48.400;11.770;2022-10-30T00:03:50;96966.00;;;16.50
14851;BMP180;7517;48.400;11.770;2022-10-30T00:06:20;96965.00;;;16.50
14851;BMP180;7517;48.400;11.770;2022-10-30T00:08:51;96964.00;;;16.40
14851;BMP180;7517;48.400;11.770;2022-10-30T00:11:19;96966.00;;;16.40
14851;BMP180;7517;48.400;11.770;2022-10-30T00:13:49;96961.00;;;16.40
14851;BMP180;7517;48.400;11.770;2022-10-30T00:16:19;96963.00;;;16.40
14851;BMP180;7517;48.400;11.770;2022-10-30T00:18:46;96952.00;;;16.30
14851;BMP180;7517;48.400;11.770;2022-10-30T00:21:15;96959.00;;;16.30
14851;BMP180;7517;48.400;11.770;2022-10-30T00:23:45;96952.00;;;16.30
14851;BMP180;7517;48.400;11.770;2022-10-30T00:26:13;96957.00;;;16.20
14851;BMP180;7517;48.400;11.770;2022-10-30T00:28:42;96958.00;;;16.20
14851;BMP180;7517;48.400;11.770;2022-10-30T00:31:09;96955.00;;;16.20
14851;BMP180;7517;48.400;11.770;2022-10-30T00:33:36;96953.00;;;16.20
14851;BMP180;7517;48.400;11.770;2022-10-30T00:36:05;96957.00;;;16.10
14851;BMP180;7517;48.400;11.770;2022-10-30T00:38:32;96952.00;;;16.10
14851;BMP180;7517;48.400;11.770;2022-10-30T00:40:59;96959.00;;;16.10
14851;BMP180;7517;48.400;11.770;2022-10-30T00:43:31;96953.00;;;16.00
14851;BMP180;7517;48.400;11.770;2022-10-30T00:46:07;96955.00;;;16.00
14851;BMP180;7517;48.400;11.770;2022-10-30T00:48:40;96949.00;;;16.00
14851;BMP180;7517;48.400;11.770;2022-10-30T00:51:11;96945.00;;;15.90
14851;BMP180;7517;48.400;11.770;2022-10-30T00:53:41;96949.00;;;15.90
14851;BMP180;7517;48.400;11.770;2022-10-30T00:56:11;96950.00;;;15.90
14851;BMP180;7517;48.400;11.770;2022-10-30T00:58:46;96945.00;;;15.90
14851;BMP180;7517;48.400;11.770;2022-10-30T01:01:20;96947.00;;;15.90
14851;BMP180;7517;48.400;11.770;2022-10-30T01:03:51;96947.00;;;15.90
14851;BMP180;7517;48.400;11.770;2022-10-30T01:06:23;96945.00;;;15.80
14851;BMP180;7517;48.400;11.770;2022-10-30T01:08:52;96939.00;;;15.80
14851;BMP180;7517;48.400;11.770;2022-10-30T01:11:20;96949.00;;;15.80
14851;BMP180;7517;48.400;11.770;2022-10-30T01:13:52;96945.00;;;15.80
14851;BMP180;7517;48.400;11.770;2022-10-30T01:19:31;96942.00;;;15.70
14851;BMP180;7517;48.400;11.770;2022-10-30T01:22:19;96938.00;;;15.70
14851;BMP180;7517;48.400;11.770;2022-10-30T01:25:08;96938.00;;;15.70
14851;BMP180;7517;48.400;11.770;2022-10-30T01:28:01;96933.00;;;15.70
14851;BMP180;7517;48.400;11.770;2022-10-30T01:30:46;96930.00;;;15.60
14851;BMP180;7517;48.400;11.770;2022-10-30T01:33:34;96931.00;;;15.60
14851;BMP180;7517;48.400;11.770;2022-10-30T01:36:12;96935.00;;;15.60
14851;BMP180;7517;48.400;11.770;2022-10-30T01:38:51;96931.00;;;15.60
14851;BMP180;7517;48.400;11.770;2022-10-30T01:41:20;96928.00;;;15.50
14851;BMP180;7517;48.400;11.770;2022-10-30T01:43:54;96935.00;;;15.50
14851;BMP180;7517;48.400;11.770;2022-10-30T01:46:41;96926.00;;;15.50
14851;BMP180;7517;48.400;11.770;2022-10-30T01:49:45;96929.00;;;15.40
14851;BMP180;7517;48.400;11.770;2022-10-30T01:52:27;96932.00;;;15.40
14851;BMP180;7517;48.400;11.770;2022-10-30T01:55:08;96938.00;;;15.40
14851;BMP180;7517;48.400;11.770;2022-10-30T01:57:48;96935.00;;;15.40
14851;BMP180;7517;48.400;11.770;2022-10-30T02:00:18;96940.00;;;15.30
14851;BMP180;7517;48.400;11.770;2022-10-30T02:02:50;96931.00;;;15.30
14851;BMP180;7517;48.400;11.770;2022-10-30T02:05:30;96944.00;;;15.30
14851;BMP180;7517;48.400;11.770;2022-10-30T02:08:00;96937.00;;;15.30
14851;BMP180;7517;48.400;11.770;2022-10-30T02:10:30;96927.00;;;15.30
14851;BMP180;7517;48.400;11.770;2022-10-30T02:13:03;96932.00;;;15.20
14851;BMP180;7517;48.400;11.770;2022-10-30T02:15:33;96932.00;;;15.20
14851;BMP180;7517;48.400;11.770;2022-10-30T02:18:06;96930.00;;;15.20
14851;BMP180;7517;48.400;11.770;2022-10-30T02:20:36;96931.00;;;15.20
14851;BMP180;7517;48.400;11.770;2022-10-30T02:23:03;96932.00;;;15.20
14851;BMP180;7517;48.400;11.770;2022-10-30T02:25:31;96927.00;;;15.20
14851;BMP180;7517;48.400;11.770;2022-10-30T02:27:58;96926.00;;;15.10
14851;BMP180;7517;48.400;11.770;2022-10-30T02:30:26;96934.00;;;15.10
14851;BMP180;7517;48.400;11.770;2022-10-30T02:32:53;96931.00;;;15.10
14851;BMP180;7517;48.400;11.770;2022-10-30T02:35:20;96927.00;;;15.10
14851;BMP180;7517;48.400;11.770;2022-10-30T02:37:51;96927.00;;;15.10
14851;BMP180;7517;48.400;11.770;2022-10-30T02:40:21;96919.00;;;15.10
14851;BMP180;7517;48.400;11.770;2022-10-30T02:42:51;96918.00;;;15.00
14851;BMP180;7517;48.400;11.770;2022-10-30T02:45:19;96917.00;;;15.00
14851;BMP180;7517;48.400;11.770;2022-10-30T02:47:52;96919.00;;;15.00
14851;BMP180;7517;48.400;11.770;2022-10-30T02:50:19;96913.00;;;15.00
14851;BMP180;7517;48.400;11.770;2022-10-30T02:52:51;96914.00;;;15.00
14851;BMP180;7517;48.400;11.770;2022-10-30T02:55:18;96922.00;;;15.00
14851;BMP180;7517;48.400;11.770;2022-10-30T02:57:45;96917.00;;;15.00
14851;BMP180;7517;48.400;11.770;2022-10-30T03:00:15;96919.00;;;14.90
14851;BMP180;7517;48.400;11.770;2022-10-30T03:02:43;96914.00;;;14.90
14851;BMP180;7517;48.400;11.770;2022-10-30T03:05:10;96911.00;;;14.90
14851;BMP180;7517;48.400;11.770;2022-10-30T03:07:37;96912.00;;;14.90
14851;BMP180;7517;48.400;11.770;2022-10-30T03:10:08;96916.00;;;14.80
14851;BMP180;7517;48.400;11.770;2022-10-30T03:12:36;96913.00;;;14.80
14851;BMP180;7517;48.400;11.770;2022-10-30T03:15:04;96908.00;;;14.80
14851;BMP180;7517;48.400;11.770;2022-10-30T03:17:34;96917.00;;;14.80
14851;BMP180;7517;48.400;11.770;2022-10-30T03:20:04;96913.00;;;14.70
14851;BMP180;7517;48.400;11.770;2022-10-30T03:22:32;96915.00;;;14.70
14851;BMP180;7517;48.400;11.770;2022-10-30T03:25:02;96907.00;;;14.70
14851;BMP180;7517;48.400;11.770;2022-10-30T03:27:34;96905.00;;;14.60
14851;BMP180;7517;48.400;11.770;2022-10-30T03:30:01;96907.00;;;14.60
14851;BMP180;7517;48.400;11.770;2022-10-30T03:32:28;96907.00;;;14.60
14851;BMP180;7517;48.400;11.770;2022-10-30T03:35:01;96905.00;;;14.60
14851;BMP180;7517;48.400;11.770;2022-10-30T03:37:28;96910.00;;;14.50
14851;BMP180;7517;48.400;11.770;2022-10-30T03:39:55;96908.00;;;14.50
14851;BMP180;7517;48.400;11.770;2022-10-30T03:42:27;96910.00;;;14.50
14851;BMP180;7517;48.400;11.770;2022-10-30T03:44:56;96915.00;;;14.50
14851;BMP180;7517;48.400;11.770;2022-10-30T03:47:25;96920.00;;;14.50
14851;BMP180;7517;48.400;11.770;2022-10-30T03:49:52;96913.00;;;14.50
14851;BMP180;7517;48.400;11.770;2022-10-30T03:52:20;96910.00;;;14.50
14851;BMP180;7517;48.400;11.770;2022-10-30T03:54:51;96907.00;;;14.40
14851;BMP180;7517;48.400;11.770;2022-10-30T03:57:20;96913.00;;;14.40
14851;BMP180;7517;48.400;11.770;2022-10-30T03:59:47;96911.00;;;14.40
14851;BMP180;7517;48.400;11.770;2022-10-30T04:02:15;96911.00;;;14.40
14851;BMP180;7517;48.400;11.770;2022-10-30T04:04:43;96920.00;;;14.30
14851;BMP180;7517;48.400;11.770;2022-10-30T04:07:12;96913.00;;;14.30
14851;BMP180;7517;48.400;11.770;2022-10-30T04:09:40;96920.00;;;14.30
14851;BMP180;7517;48.400;11.770;2022-10-30T04:12:10;96910.00;;;14.30
14851;BMP180;7517;48.400;11.770;2022-10-30T04:14:37;96910.00;;;14.30
14851;BMP180;7517;48.400;11.770;2022-10-30T04:17:07;96910.00;;;14.30
14851;BMP180;7517;48.400;11.770;2022-10-30T04:19:36;96907.00;;;14.30
14851;BMP180;7517;48.400;11.770;2022-10-30T04:22:03;96905.00;;;14.30
14851;BMP180;7517;48.400;11.770;2022-10-30T04:24:31;96916.00;;;14.30
14851;BMP180;7517;48.400;11.770;2022-10-30T04:27:01;96910.00;;;14.30
14851;BMP180;7517;48.400;11.770;2022-10-30T04:29:28;96908.00;;;14.30
14851;BMP180;7517;48.400;11.770;2022-10-30T04:32:01;96909.00;;;14.30
14851;BMP180;7517;48.400;11.770;2022-10-30T04:34:28;96903.00;;;14.30
14851;BMP180;7517;48.400;11.770;2022-10-30T04:36:57;96901.00;;;14.20
14851;BMP180;7517;48.400;11.770;2022-10-30T04:39:24;96897.00;;;14.20
14851;BMP180;7517;48.400;11.770;2022-10-30T04:41:51;96897.00;;;14.20
14851;BMP180;7517;48.400;11.770;2022-10-30T04:44:18;96900.00;;;14.20
14851;BMP180;7517;48.400;11.770;2022-10-30T04:46:46;96908.00;;;14.20
14851;BMP180;7517;48.400;11.770;2022-10-30T04:49:13;96900.00;;;14.20
14851;BMP180;7517;48.400;11.770;2022-10-30T04:51:40;96892.00;;;14.20
14851;BMP180;7517;48.400;11.770;2022-10-30T04:54:08;96902.00;;;14.10
14851;BMP180;7517;48.400;11.770;2022-10-30T04:56:38;96896.00;;;14.10
14851;BMP180;7517;48.400;11.770;2022-10-30T04:59:08;96892.00;;;14.10
14851;BMP180;7517;48.400;11.770;2022-10-30T05:01:36;96883.00;;;14.10
14851;BMP180;7517;48.400;11.770;2022-10-30T05:04:03;96879.00;;;14.10
14851;BMP180;7517;48.400;11.770;2022-10-30T05:06:31;96887.00;;;14.00
14851;BMP180;7517;48.400;11.770;2022-10-30T05:09:02;96879.00;;;14.00
14851;BMP180;7517;48.400;11.770;2022-10-30T05:11:33;96886.00;;;14.00
14851;BMP180;7517;48.400;11.770;2022-10-30T05:14:00;96879.00;;;14.00
14851;BMP180;7517;48.400;11.770;2022-10-30T05:16:27;96873.00;;;14.00
14851;BMP180;7517;48.400;11.770;2022-10-30T05:18:58;96873.00;;;14.00
14851;BMP180;7517;48.400;11.770;2022-10-30T05:21:25;96878.00;;;14.00
14851;BMP180;7517;48.400;11.770;2022-10-30T05:23:52;96882.00;;;14.00
14851;BMP180;7517;48.400;11.770;2022-10-30T05:26:22;96869.00;;;14.00
14851;BMP180;7517;48.400;11.770;2022-10-30T05:28:54;96878.00;;;13.90
14851;BMP180;7517;48.400;11.770;2022-10-30T05:31:26;96872.00;;;13.90
14851;BMP180;7517;48.400;11.770;2022-10-30T05:33:53;96863.00;;;13.90
14851;BMP180;7517;48.400;11.770;2022-10-30T05:36:24;96870.00;;;13.90
14851;BMP180;7517;48.400;11.770;2022-10-30T05:38:54;96864.00;;;13.90
14851;BMP180;7517;48.400;11.770;2022-10-30T05:41:21;96868.00;;;13.90
14851;BMP180;7517;48.400;11.770;2022-10-30T05:43:52;96864.00;;;13.90
14851;BMP180;7517;48.400;11.770;2022-10-30T05:46:19;96865.00;;;13.90
14851;BMP180;7517;48.400;11.770;2022-10-30T05:48:47;96864.00;;;13.80
14851;BMP180;7517;48.400;11.770;2022-10-30T05:51:17;96867.00;;;13.80
14851;BMP180;7517;48.400;11.770;2022-10-30T05:53:49;96865.00;;;13.80
14851;BMP180;7517;48.400;11.770;2022-10-30T05:56:16;96862.00;;;13.80
14851;BMP180;7517;48.400;11.770;2022-10-30T05:58:43;96863.00;;;13.80
14851;BMP180;7517;48.400;11.770;2022-10-30T06:01:15;96865.00;;;13.80
14851;BMP180;7517;48.400;11.770;2022-10-30T06:03:42;96867.00;;;13.80
14851;BMP180;7517;48.400;11.770;2022-10-30T06:06:18;96876.00;;;13.80
14851;BMP180;7517;48.400;11.770;2022-10-30T06:08:50;96878.00;;;13.80
14851;BMP180;7517;48.400;11.770;2022-10-30T06:11:17;96888.00;;;13.80
14851;BMP180;7517;48.400;11.770;2022-10-30T06:13:44;96882.00;;;13.80
14851;BMP180;7517;48.400;11.770;2022-10-30T06:16:23;96890.00;;;13.80
14851;BMP180;7517;48.400;11.770;2022-10-30T06:18:50;96896.00;;;13.80
14851;BMP180;7517;48.400;11.770;2022-10-30T06:21:19;96892.00;;;13.80
14851;BMP180;7517;48.400;11.770;2022-10-30T06:23:49;96891.00;;;13.80
14851;BMP180;7517;48.400;11.770;2022-10-30T06:26:24;96881.00;;;13.80
14851;BMP180;7517;48.400;11.770;2022-10-30T06:28:54;96886.00;;;13.80
14851;BMP180;7517;48.400;11.770;2022-10-30T06:31:26;96882.00;;;13.80
14851;BMP180;7517;48.400;11.770;2022-10-30T06:33:53;96888.00;;;13.90
14851;BMP180;7517;48.400;11.770;2022-10-30T06:36:23;96885.00;;;13.90
14851;BMP180;7517;48.400;11.770;2022-10-30T06:38:53;96888.00;;;13.90
14851;BMP180;7517;48.400;11.770;2022-10-30T06:41:20;96885.00;;;13.90
14851;BMP180;7517;48.400;11.770;2022-10-30T06:43:47;96876.00;;;13.90
14851;BMP180;7517;48.400;11.770;2022-10-30T06:46:15;96873.00;;;13.90
14851;BMP180;7517;48.400;11.770;2022-10-30T06:48:46;96878.00;;;14.00
14851;BMP180;7517;48.400;11.770;2022-10-30T06:51:16;96877.00;;;14.10
14851;BMP180;7517;48.400;11.770;2022-10-30T06:53:56;96886.00;;;14.20
14851;BMP180;7517;48.400;11.770;2022-10-30T06:56:31;96884.00;;;14.20
14851;BMP180;7517;48.400;11.770;2022-10-30T06:59:00;96882.00;;;14.30
14851;BMP180;7517;48.400;11.770;2022-10-30T07:01:30;96880.00;;;14.30
14851;BMP180;7517;48.400;11.770;2022-10-30T07:03:58;96884.00;;;14.40
14851;BMP180;7517;48.400;11.770;2022-10-30T07:06:26;96889.00;;;14.40
14851;BMP180;7517;48.400;11.770;2022-10-30T07:08:53;96889.00;;;14.50
14851;BMP180;7517;48.400;11.770;2022-10-30T07:11:20;96885.00;;;14.60
14851;BMP180;7517;48.400;11.770;2022-10-30T07:13:47;96893.00;;;14.60
14851;BMP180;7517;48.400;11.770;2022-10-30T07:16:14;96897.00;;;14.70
14851;BMP180;7517;48.400;11.770;2022-10-30T07:18:42;96895.00;;;14.80
14851;BMP180;7517;48.400;11.770;2022-10-30T07:21:10;96899.00;;;14.80
14851;BMP180;7517;48.400;11.770;2022-10-30T07:23:47;96898.00;;;14.90
14851;BMP180;7517;48.400;11.770;2022-10-30T07:26:31;96902.00;;;15.00
14851;BMP180;7517;48.400;11.770;2022-10-30T07:29:11;96903.00;;;15.00
14851;BMP180;7517;48.400;11.770;2022-10-30T07:31:41;96909.00;;;15.10
14851;BMP180;7517;48.400;11.770;2022-10-30T07:34:12;96910.00;;;15.20
14851;BMP180;7517;48.400;11.770;2022-10-30T07:36:49;96911.00;;;15.20
14851;BMP180;7517;48.400;11.770;2022-10-30T07:39:21;96910.00;;;15.30
14851;BMP180;7517;48.400;11.770;2022-10-30T07:41:51;96916.00;;;15.40
14851;BMP180;7517;48.400;11.770;2022-10-30T07:44:35;96915.00;;;15.40
14851;BMP180;7517;48.400;11.770;2022-10-30T07:47:07;96916.00;;;15.50
14851;BMP180;7517;48.400;11.770;2022-10-30T07:49:41;96916.00;;;15.60
14851;BMP180;7517;48.400;11.770;2022-10-30T07:52:13;96929.00;;;15.70
14851;BMP180;7517;48.400;11.770;2022-10-30T07:54:45;96933.00;;;15.80
14851;BMP180;7517;48.400;11.770;2022-10-30T07:57:14;96932.00;;;15.90
14851;BMP180;7517;48.400;11.770;2022-10-30T07:59:47;96930.00;;;16.00
14851;BMP180;7517;48.400;11.770;2022-10-30T08:02:19;96938.00;;;16.10
14851;BMP180;7517;48.400;11.770;2022-10-30T08:04:48;96936.00;;;16.20
14851;BMP180;7517;48.400;11.770;2022-10-30T08:07:36;96933.00;;;16.30
14851;BMP180;7517;48.400;11.770;2022-10-30T08:10:13;96935.00;;;16.40
14851;BMP180;7517;48.400;11.770;2022-10-30T08:12:48;96935.00;;;16.60
14851;BMP180;7517;48.400;11.770;2022-10-30T08:15:16;96936.00;;;16.60
14851;BMP180;7517;48.400;11.770;2022-10-30T08:17:52;96934.00;;;16.70
14851;BMP180;7517;48.400;11.770;2022-10-30T08:20:29;96923.00;;;16.80
14851;BMP180;7517;48.400;11.770;2022-10-30T08:23:00;96929.00;;;16.90
14851;BMP180;7517;48.400;11.770;2022-10-30T08:25:29;96925.00;;;17.00
14851;BMP180;7517;48.400;11.770;2022-10-30T08:27:59;96926.00;;;17.10
14851;BMP180;7517;48.400;11.770;2022-10-30T08:30:31;96927.00;;;17.20
14851;BMP180;7517;48.400;11.770;2022-10-30T08:33:09;96926.00;;;17.30
14851;BMP180;7517;48.400;11.770;2022-10-30T08:35:40;96935.00;;;17.40
14851;BMP180;7517;48.400;11.770;2022-10-30T08:38:24;96933.00;;;17.50
14851;BMP180;7517;48.400;11.770;2022-10-30T08:40:58;96936.00;;;17.60
14851;BMP180;7517;48.400;11.770;2022-10-30T08:43:30;96933.00;;;17.70
14851;BMP180;7517;48.400;11.770;2022-10-30T08:46:00;96930.00;;;17.80
14851;BMP180;7517;48.400;11.770;2022-10-30T08:48:37;96930.00;;;17.80
14851;BMP180;7517;48.400;11.770;2022-10-30T08:51:13;96937.00;;;17.90
14851;BMP180;7517;48.400;11.770;2022-10-30T08:53:47;96932.00;;;18.00
14851;BMP180;7517;48.400;11.770;2022-10-30T08:56:17;96932.00;;;18.10
14851;BMP180;7517;48.400;11.770;2022-10-30T08:58:54;96924.00;;;18.20
14851;BMP180;7517;48.400;11.770;2022-10-30T09:01:21;96931.00;;;18.30
14851;BMP180;7517;48.400;11.770;2022-10-30T09:03:48;96922.00;;;18.40
14851;BMP180;7517;48.400;11.770;2022-10-30T09:06:18;96928.00;;;18.50
14851;BMP180;7517;48.400;11.770;2022-10-30T09:08:48;96923.00;;;18.60
14851;BMP180;7517;48.400;11.770;2022-10-30T09:11:16;96932.00;;;18.60
14851;BMP180;7517;48.400;11.770;2022-10-30T09:13:46;96926.00;;;18.80
14851;BMP180;7517;48.400;11.770;2022-10-30T09:16:17;96933.00;;;18.80
14851;BMP180;7517;48.400;11.770;2022-10-30T09:18:47;96934.00;;;19.00
14851;BMP180;7517;48.400;11.770;2022-10-30T09:21:18;96929.00;;;19.00
14851;BMP180;7517;48.400;11.770;2022-10-30T09:23:52;96934.00;;;19.20
14851;BMP180;7517;48.400;11.770;2022-10-30T09:26:22;96934.00;;;19.30
14851;BMP180;7517;48.400;11.770;2022-10-30T09:28:53;96932.00;;;19.40
14851;BMP180;7517;48.400;11.770;2022-10-30T09:31:25;96937.00;;;19.50
14851;BMP180;7517;48.400;11.770;2022-10-30T09:33:58;96939.00;;;19.70
14851;BMP180;7517;48.400;11.770;2022-10-30T09:36:31;96942.00;;;19.90
14851;BMP180;7517;48.400;11.770;2022-10-30T09:39:04;96936.00;;;20.00
14851;BMP180;7517;48.400;11.770;2022-10-30T09:42:14;96941.00;;;20.20
14851;BMP180;7517;48.400;11.770;2022-10-30T09:45:02;96939.00;;;20.30
14851;BMP180;7517;48.400;11.770;2022-10-30T09:47:51;96950.00;;;20.50
14851;BMP180;7517;48.400;11.770;2022-10-30T09:50:37;96938.00;;;20.60
14851;BMP180;7517;48.400;11.770;2022-10-30T09:53:31;96943.00;;;20.70
14851;BMP180;7517;48.400;11.770;2022-10-30T09:56:14;96945.00;;;20.80
14851;BMP180;7517;48.400;11.770;2022-10-30T09:58:58;96951.00;;;21.00
14851;BMP180;7517;48.400;11.770;2022-10-30T10:01:43;96942.00;;;21.10
14851;BMP180;7517;48.400;11.770;2022-10-30T10:04:25;96946.00;;;21.20
14851;BMP180;7517;48.400;11.770;2022-10-30T10:07:03;96947.00;;;21.40
14851;BMP180;7517;48.400;11.770;2022-10-30T10:09:41;96937.00;;;21.50
14851;BMP180;7517;48.400;11.770;2022-10-30T10:12:22;96950.00;;;21.60
14851;BMP180;7517;48.400;11.770;2022-10-30T10:14:55;96948.00;;;21.70
14851;BMP180;7517;48.400;11.770;2022-10-30T10:17:37;96950.00;;;21.90
14851;BMP180;7517;48.400;11.770;2022-10-30T10:20:22;96949.00;;;22.00
14851;BMP180;7517;48.400;11.770;2022-10-30T10:22:58;96953.00;;;22.20
14851;BMP180;7517;48.400;11.770;2022-10-30T10:25:30;96949.00;;;22.30
14851;BMP180;7517;48.400;11.770;2022-10-30T10:28:13;96947.00;;;22.40
14851;BMP180;7517;48.400;11.770;2022-10-30T10:30:59;96939.00;;;22.50
14851;BMP180;7517;48.400;11.770;2022-10-30T10:33:51;96941.00;;;22.50
14851;BMP180;7517;48.400;11.770;2022-10-30T10:36:38;96936.00;;;22.60
14851;BMP180;7517;48.400;11.770;2022-10-30T10:39:28;96941.00;;;22.60
14851;BMP180;7517;48.400;11.770;2022-10-30T10:42:18;96941.00;;;22.70
14851;BMP180;7517;48.400;11.770;2022-10-30T10:45:14;96933.00;;;22.70
14851;BMP180;7517;48.400;11.770;2022-10-30T10:48:40;96935.00;;;22.70
14851;BMP180;7517;48.400;11.770;2022-10-30T10:51:14;96935.00;;;22.70
14851;BMP180;7517;48.400;11.770;2022-10-30T10:53:50;96932.00;;;22.70
14851;BMP180;7517;48.400;11.770;2022-10-30T10:56:27;96927.00;;;22.70
14851;BMP180;7517;48.400;11.770;2022-10-30T10:58:59;96924.00;;;22.70
14851;BMP180;7517;48.400;11.770;2022-10-30T11:01:37;96925.00;;;22.70
14851;BMP180;7517;48.400;11.770;2022-10-30T11:04:15;96928.00;;;22.70
14851;BMP180;7517;48.400;11.770;2022-10-30T11:06:54;96926.00;;;22.70
14851;BMP180;7517;48.400;11.770;2022-10-30T11:09:23;96918.00;;;22.70
14851;BMP180;7517;48.400;11.770;2022-10-30T11:11:54;96924.00;;;22.70
14851;BMP180;7517;48.400;11.770;2022-10-30T11:14:24;96921.00;;;22.70
14851;BMP180;7517;48.400;11.770;2022-10-30T11:17:04;96910.00;;;22.70
14851;BMP180;7517;48.400;11.770;2022-10-30T11:19:36;96915.00;;;22.80
14851;BMP180;7517;48.400;11.770;2022-10-30T11:22:16;96918.00;;;22.80
14851;BMP180;7517;48.400;11.770;2022-10-30T11:24:46;96912.00;;;22.80
14851;BMP180;7517;48.400;11.770;2022-10-30T11:27:24;96908.00;;;22.90
14851;BMP180;7517;48.400;11.770;2022-10-30T11:29:55;96901.00;;;22.90
14851;BMP180;7517;48.400;11.770;2022-10-30T11:32:27;96903.00;;;22.90
14851;BMP180;7517;48.400;11.770;2022-10-30T11:35:09;96904.00;;;23.00
14851;BMP180;7517;48.400;11.770;2022-10-30T11:37:39;96902.00;;;23.00
14851;BMP180;7517;48.400;11.770;2022-10-30T11:40:17;96899.00;;;23.00
14851;BMP180;7517;48.400;11.770;2022-10-30T11:42:48;96894.00;;;23.10
14851;BMP180;7517;48.400;11.770;2022-10-30T11:45:19;96899.00;;;23.10
14851;BMP180;7517;48.400;11.770;2022-10-30T11:47:52;96892.00;;;23.20
14851;BMP180;7517;48.400;11.770;2022-10-30T11:50:23;96889.00;;;23.30
14851;BMP180;7517;48.400;11.770;2022-10-30T11:52:54;96889.00;;;23.30
14851;BMP180;7517;48.400;11.770;2022-10-30T11:55:34;96883.00;;;23.40
14851;BMP180;7517;48.400;11.770;2022-10-30T11:58:04;96885.00;;;23.40
14851;BMP180;7517;48.400;11.770;2022-10-30T12:00:34;96888.00;;;23.40
14851;BMP180;7517;48.400;11.770;2022-10-30T12:03:25;96879.00;;;23.50
14851;BMP180;7517;48.400;11.770;2022-10-30T12:06:08;96878.00;;;23.50
14851;BMP180;7517;48.400;11.770;2022-10-30T12:08:36;96875.00;;;23.50
14851;BMP180;7517;48.400;11.770;2022-10-30T12:11:04;96873.00;;;23.60
14851;BMP180;7517;48.400;11.770;2022-10-30T12:13:41;96871.00;;;23.60
14851;BMP180;7517;48.400;11.770;2022-10-30T12:16:14;96877.00;;;23.70
14851;BMP180;7517;48.400;11.770;2022-10-30T12:18:53;96871.00;;;23.70
14851;BMP180;7517;48.400;11.770;2022-10-30T12:21:24;96864.00;;;23.80
14851;BMP180;7517;48.400;11.770;2022-10-30T12:23:56;96861.00;;;23.80
14851;BMP180;7517;48.400;11.770;2022-10-30T12:26:28;96852.00;;;23.80
14851;BMP180;7517;48.400;11.770;2022-10-30T12:28:59;96856.00;;;23.80
14851;BMP180;7517;48.400;11.770;2022-10-30T12:31:38;96853.00;;;23.90
14851;BMP180;7517;48.400;11.770;2022-10-30T12:34:32;96848.00;;;23.90
14851;BMP180;7517;48.400;11.770;2022-10-30T12:37:07;96853.00;;;23.90
14851;BMP180;7517;48.400;11.770;2022-10-30T12:39:54;96854.00;;;23.90
14851;BMP180;7517;48.400;11.770;2022-10-30T12:42:22;96854.00;;;23.90
14851;BMP180;7517;48.400;11.770;2022-10-30T12:45:02;96845.00;;;24.00
14851;BMP180;7517;48.400;11.770;2022-10-30T12:47:44;96847.00;;;24.00
14851;BMP180;7517;48.400;11.770;2022-10-30T12:50:21;96846.00;;;24.00
14851;BMP180;7517;48.400;11.770;2022-10-30T12:52:58;96852.00;;;24.00
14851;BMP180;7517;48.400;11.770;2022-10-30T12:55:33;96848.00;;;24.00
14851;BMP180;7517;48.400;11.770;2022-10-30T12:58:12;96839.00;;;24.10
14851;BMP180;7517;48.400;11.770;2022-10-30T13:00:47;96842.00;;;24.10
14851;BMP180;7517;48.400;11.770;2022-10-30T13:03:27;96845.00;;;24.20
14851;BMP180;7517;48.400;11.770;2022-10-30T13:06:00;96845.00;;;24.20
14851;BMP180;7517;48.400;11.770;2022-10-30T13:08:33;96837.00;;;24.20
14851;BMP180;7517;48.400;11.770;2022-10-30T13:11:10;96844.00;;;24.30
14851;BMP180;7517;48.400;11.770;2022-10-30T13:13:42;96830.00;;;24.30
14851;BMP180;7517;48.400;11.770;2022-10-30T13:16:16;96836.00;;;24.40
14851;BMP180;7517;48.400;11.770;2022-10-30T13:18:44;96831.00;;;24.40
14851;BMP180;7517;48.400;11.770;2022-10-30T13:21:22;96830.00;;;24.50
14851;BMP180;7517;48.400;11.770;2022-10-30T13:23:54;96833.00;;;24.50
14851;BMP180;7517;48.400;11.770;2022-10-30T13:26:36;96830.00;;;24.50
14851;BMP180;7517;48.400;11.770;2022-10-30T13:29:17;96826.00;;;24.60
14851;BMP180;7517;48.400;11.770;2022-10-30T13:32:22;96829.00;;;24.60
14851;BMP180;7517;48.400;11.770;2022-10-30T13:34:55;96833.00;;;24.60
14851;BMP180;7517;48.400;11.770;2022-10-30T13:37:33;96824.00;;;24.60
14851;BMP180;7517;48.400;11.770;2022-10-30T13:40:13;96825.00;;;24.70
14851;BMP180;7517;48.400;11.770;2022-10-30T13:42:56;96824.00;;;24.70
14851;BMP180;7517;48.400;11.770;2022-10-30T13:48:56;96836.00;;;24.70
14851;BMP180;7517;48.400;11.770;2022-10-30T13:51:38;96830.00;;;24.80
14851;BMP180;7517;48.400;11.770;2022-10-30T13:54:18;96826.00;;;24.80
14851;BMP180;7517;48.400;11.770;2022-10-30T13:56:48;96827.00;;;24.80
14851;BMP180;7517;48.400;11.770;2022-10-30T13:59:32;96830.00;;;24.80
14851;BMP180;7517;48.400;11.770;2022-10-30T14:02:11;96830.00;;;24.80
14851;BMP180;7517;48.400;11.770;2022-10-30T14:04:50;96828.00;;;24.80
14851;BMP180;7517;48.400;11.770;2022-10-30T14:07:29;96832.00;;;24.80
14851;BMP180;7517;48.400;11.770;2022-10-30T14:10:07;96834.00;;;24.80
14851;BMP180;7517;48.400;11.770;2022-10-30T14:12:50;96835.00;;;24.80
14851;BMP180;7517;48.400;11.770;2022-10-30T14:15:41;96841.00;;;24.80
14851;BMP180;7517;48.400;11.770;2022-10-30T14:18:43;96840.00;;;24.80
14851;BMP180;7517;48.400;11.770;2022-10-30T14:21:44;96842.00;;;24.80
14851;BMP180;7517;48.400;11.770;2022-10-30T14:24:20;96836.00;;;24.80
14851;BMP180;7517;48.400;11.770;2022-10-30T14:26:52;96837.00;;;24.80
14851;BMP180;7517;48.400;11.770;2022-10-30T14:29:50;96833.00;;;24.80
14851;BMP180;7517;48.400;11.770;2022-10-30T14:32:47;96834.00;;;24.80
14851;BMP180;7517;48.400;11.770;2022-10-30T14:35:36;96838.00;;;24.80
14851;BMP180;7517;48.400;11.770;2022-10-30T14:38:33;96826.00;;;24.80
14851;BMP180;7517;48.400;11.770;2022-10-30T14:41:24;96829.00;;;24.70
14851;BMP180;7517;48.400;11.770;2022-10-30T14:47:47;96823.00;;;24.60
14851;BMP180;7517;48.400;11.770;2022-10-30T14:50:32;96825.00;;;24.60
14851;BMP180;7517;48.400;11.770;2022-10-30T14:53:32;96829.00;;;24.60
14851;BMP180;7517;48.400;11.770;2022-10-30T14:56:06;96828.00;;;24.60
14851;BMP180;7517;48.400;11.770;2022-10-30T14:58:37;96833.00;;;24.50